sensor_id;sensor_type;location;lat;lon;timestamp;temperature;humidity
21184;DHT22;18176;49.502;11.754;2023-04-06T00:03:26;-2.20;99.90
21184;DHT22;18176;49.502;11.754;2023-04-06T00:07:27;-2.30;99.90
21184;DHT22;18176;49.502;11.754;2023-04-06T00:11:30;-2.30;99.90
21184;DHT22;18176;49.502;11.754;2023-04-06T00:15:33;-2.40;99.90
21184;DHT22;18176;49.502;11.754;2023-04-06T00:19:34;-2.40;99.90
21184;DHT22;18176;49.502;11.754;2023-04-06T00:23:37;-2.50;99.90
21184;DHT22;18176;49.502;11.754;2023-04-06T00:27:38;-2.50;99.90
21184;DHT22;18176;49.502;11.754;2023-04-06T00:31:41;-2.50;99.90
21184;DHT22;18176;49.502;11.754;2023-04-06T00:35:42;-2.60;99.90
21184;DHT22;18176;49.502;11.754;2023-04-06T00:39:42;-2.60;99.90
21184;DHT22;18176;49.502;11.754;2023-04-06T00:43:43;-2.60;99.90
21184;DHT22;18176;49.502;11.754;2023-04-06T00:47:46;-2.60;99.90
21184;DHT22;18176;49.502;11.754;2023-04-06T00:51:47;-2.60;99.90
21184;DHT22;18176;49.502;11.754;2023-04-06T00:55:47;-2.50;99.90
21184;DHT22;18176;49.502;11.754;2023-04-06T00:59:49;-2.40;99.90
21184;DHT22;18176;49.502;11.754;2023-04-06T01:03:52;-2.20;99.90
21184;DHT22;18176;49.502;11.754;2023-04-06T01:07:53;-2.10;99.90
21184;DHT22;18176;49.502;11.754;2023-04-06T01:11:57;-1.90;99.90
21184;DHT22;18176;49.502;11.754;2023-04-06T01:16:01;-1.80;99.90
21184;DHT22;18176;49.502;11.754;2023-04-06T01:20:22;-1.70;99.90
21184;DHT22;18176;49.502;11.754;2023-04-06T01:24:26;-1.70;99.90
21184;DHT22;18176;49.502;11.754;2023-04-06T01:28:35;-1.60;99.90
21184;DHT22;18176;49.502;11.754;2023-04-06T01:32:46;-1.50;99.90
21184;DHT22;18176;49.502;11.754;2023-04-06T01:36:57;-1.50;99.90
21184;DHT22;18176;49.502;11.754;2023-04-06T01:41:02;-1.40;99.90
21184;DHT22;18176;49.502;11.754;2023-04-06T01:45:14;-1.40;99.90
21184;DHT22;18176;49.502;11.754;2023-04-06T01:49:16;-1.30;99.90
21184;DHT22;18176;49.502;11.754;2023-04-06T01:53:22;-1.20;99.90
21184;DHT22;18176;49.502;11.754;2023-04-06T01:57:31;-1.20;99.90
21184;DHT22;18176;49.502;11.754;2023-04-06T02:01:46;-1.20;99.90
21184;DHT22;18176;49.502;11.754;2023-04-06T02:05:47;-1.10;99.90
21184;DHT22;18176;49.502;11.754;2023-04-06T02:10:00;-1.10;99.90
21184;DHT22;18176;49.502;11.754;2023-04-06T02:14:09;-1.10;99.90
21184;DHT22;18176;49.502;11.754;2023-04-06T02:18:15;-1.00;99.90
21184;DHT22;18176;49.502;11.754;2023-04-06T02:22:17;-1.00;99.90
21184;DHT22;18176;49.502;11.754;2023-04-06T02:26:17;-1.00;99.90
21184;DHT22;18176;49.502;11.754;2023-04-06T02:30:21;-1.00;99.90
21184;DHT22;18176;49.502;11.754;2023-04-06T02:34:21;-1.10;99.90
21184;DHT22;18176;49.502;11.754;2023-04-06T02:38:23;-1.00;99.90
21184;DHT22;18176;49.502;11.754;2023-04-06T02:42:24;-1.10;99.90
21184;DHT22;18176;49.502;11.754;2023-04-06T02:46:28;-1.10;99.90
21184;DHT22;18176;49.502;11.754;2023-04-06T02:50:28;-1.20;99.90
21184;DHT22;18176;49.502;11.754;2023-04-06T02:54:33;-1.40;99.90
21184;DHT22;18176;49.502;11.754;2023-04-06T02:58:34;-1.50;99.90
21184;DHT22;18176;49.502;11.754;2023-04-06T03:02:37;-1.50;99.90
21184;DHT22;18176;49.502;11.754;2023-04-06T03:06:42;-1.60;99.90
21184;DHT22;18176;49.502;11.754;2023-04-06T03:10:52;-1.70;99.90
21184;DHT22;18176;49.502;11.754;2023-04-06T03:15:01;-1.80;99.90
21184;DHT22;18176;49.502;11.754;2023-04-06T03:19:05;-1.90;99.90
21184;DHT22;18176;49.502;11.754;2023-04-06T03:23:06;-2.00;99.90
21184;DHT22;18176;49.502;11.754;2023-04-06T03:27:10;-2.00;99.90
21184;DHT22;18176;49.502;11.754;2023-04-06T03:31:11;-2.10;99.90
21184;DHT22;18176;49.502;11.754;2023-04-06T03:35:32;-2.10;99.90
21184;DHT22;18176;49.502;11.754;2023-04-06T03:39:34;-2.10;99.90
21184;DHT22;18176;49.502;11.754;2023-04-06T03:43:35;-2.20;99.90
21184;DHT22;18176;49.502;11.754;2023-04-06T03:47:36;-2.20;99.90
21184;DHT22;18176;49.502;11.754;2023-04-06T03:51:41;-2.20;99.90
21184;DHT22;18176;49.502;11.754;2023-04-06T03:55:42;-2.10;99.90
21184;DHT22;18176;49.502;11.754;2023-04-06T03:59:42;-2.10;99.90
21184;DHT22;18176;49.502;11.754;2023-04-06T04:03:43;-2.00;99.90
21184;DHT22;18176;49.502;11.754;2023-04-06T04:07:50;-2.00;99.90
21184;DHT22;18176;49.502;11.754;2023-04-06T04:11:54;-2.00;99.90
21184;DHT22;18176;49.502;11.754;2023-04-06T04:15:55;-2.00;99.90
21184;DHT22;18176;49.502;11.754;2023-04-06T04:19:56;-2.00;99.90
21184;DHT22;18176;49.502;11.754;2023-04-06T04:23:59;-2.10;99.90
21184;DHT22;18176;49.502;11.754;2023-04-06T04:28:02;-2.20;99.90
21184;DHT22;18176;49.502;11.754;2023-04-06T04:32:03;-2.30;99.90
21184;DHT22;18176;49.502;11.754;2023-04-06T04:36:05;-2.40;99.90
21184;DHT22;18176;49.502;11.754;2023-04-06T04:40:14;-2.50;99.90
21184;DHT22;18176;49.502;11.754;2023-04-06T04:44:26;-2.60;99.90
21184;DHT22;18176;49.502;11.754;2023-04-06T04:48:27;-2.70;99.90
21184;DHT22;18176;49.502;11.754;2023-04-06T04:52:33;-2.80;99.90
21184;DHT22;18176;49.502;11.754;2023-04-06T04:56:47;-2.80;99.90
21184;DHT22;18176;49.502;11.754;2023-04-06T05:01:03;-2.90;99.90
21184;DHT22;18176;49.502;11.754;2023-04-06T05:05:05;-2.90;99.90
21184;DHT22;18176;49.502;11.754;2023-04-06T05:09:08;-2.90;99.90
21184;DHT22;18176;49.502;11.754;2023-04-06T05:13:13;-2.90;99.90
21184;DHT22;18176;49.502;11.754;2023-04-06T05:17:17;-2.90;99.90
21184;DHT22;18176;49.502;11.754;2023-04-06T05:21:18;-2.80;99.90
21184;DHT22;18176;49.502;11.754;2023-04-06T05:25:25;-2.70;99.90
21184;DHT22;18176;49.502;11.754;2023-04-06T05:29:35;-2.40;99.90
21184;DHT22;18176;49.502;11.754;2023-04-06T05:33:36;-2.30;99.90
21184;DHT22;18176;49.502;11.754;2023-04-06T05:37:42;-2.30;99.90
21184;DHT22;18176;49.502;11.754;2023-04-06T05:41:43;-2.30;99.90
21184;DHT22;18176;49.502;11.754;2023-04-06T05:45:49;-2.30;99.90
21184;DHT22;18176;49.502;11.754;2023-04-06T05:49:50;-2.30;99.90
21184;DHT22;18176;49.502;11.754;2023-04-06T05:54:00;-2.30;99.90
21184;DHT22;18176;49.502;11.754;2023-04-06T05:58:04;-2.10;99.90
21184;DHT22;18176;49.502;11.754;2023-04-06T06:02:08;-2.00;99.90
21184;DHT22;18176;49.502;11.754;2023-04-06T06:06:12;-1.90;99.90
21184;DHT22;18176;49.502;11.754;2023-04-06T06:10:34;-1.80;99.90
21184;DHT22;18176;49.502;11.754;2023-04-06T06:14:37;-1.70;99.90
21184;DHT22;18176;49.502;11.754;2023-04-06T06:18:40;-1.60;99.90
21184;DHT22;18176;49.502;11.754;2023-04-06T06:22:41;-1.40;99.90
21184;DHT22;18176;49.502;11.754;2023-04-06T06:26:46;-1.30;99.90
21184;DHT22;18176;49.502;11.754;2023-04-06T06:30:52;-1.10;99.90
21184;DHT22;18176;49.502;11.754;2023-04-06T06:34:57;-1.00;99.90
21184;DHT22;18176;49.502;11.754;2023-04-06T06:38:58;-0.90;99.90
21184;DHT22;18176;49.502;11.754;2023-04-06T06:43:01;-0.70;99.90
21184;DHT22;18176;49.502;11.754;2023-04-06T06:47:18;-0.50;99.90
21184;DHT22;18176;49.502;11.754;2023-04-06T06:51:22;-0.30;99.90
21184;DHT22;18176;49.502;11.754;2023-04-06T06:55:22;-0.20;99.90
21184;DHT22;18176;49.502;11.754;2023-04-06T06:59:23;0.00;99.90
21184;DHT22;18176;49.502;11.754;2023-04-06T07:03:24;0.20;99.90
21184;DHT22;18176;49.502;11.754;2023-04-06T07:07:28;0.40;99.90
21184;DHT22;18176;49.502;11.754;2023-04-06T07:11:28;0.60;99.90
21184;DHT22;18176;49.502;11.754;2023-04-06T07:15:30;0.90;99.90
21184;DHT22;18176;49.502;11.754;2023-04-06T07:19:31;1.20;99.90
21184;DHT22;18176;49.502;11.754;2023-04-06T07:23:34;1.40;99.90
21184;DHT22;18176;49.502;11.754;2023-04-06T07:27:36;1.70;99.90
21184;DHT22;18176;49.502;11.754;2023-04-06T07:31:37;1.90;99.90
21184;DHT22;18176;49.502;11.754;2023-04-06T07:35:38;2.10;99.90
21184;DHT22;18176;49.502;11.754;2023-04-06T07:39:42;2.30;99.90
21184;DHT22;18176;49.502;11.754;2023-04-06T07:43:44;2.50;99.90
21184;DHT22;18176;49.502;11.754;2023-04-06T07:47:46;2.80;99.90
21184;DHT22;18176;49.502;11.754;2023-04-06T07:51:47;3.00;99.90
21184;DHT22;18176;49.502;11.754;2023-04-06T07:55:50;3.30;99.90
21184;DHT22;18176;49.502;11.754;2023-04-06T07:59:51;3.60;99.90
21184;DHT22;18176;49.502;11.754;2023-04-06T08:03:51;3.90;99.90
21184;DHT22;18176;49.502;11.754;2023-04-06T08:07:52;4.10;99.90
21184;DHT22;18176;49.502;11.754;2023-04-06T08:11:56;4.60;99.90
21184;DHT22;18176;49.502;11.754;2023-04-06T08:16:00;5.10;99.90
21184;DHT22;18176;49.502;11.754;2023-04-06T08:20:03;5.70;99.90
21184;DHT22;18176;49.502;11.754;2023-04-06T08:24:05;6.20;99.90
21184;DHT22;18176;49.502;11.754;2023-04-06T08:28:08;6.70;99.90
21184;DHT22;18176;49.502;11.754;2023-04-06T08:32:11;7.20;99.90
21184;DHT22;18176;49.502;11.754;2023-04-06T08:36:14;7.50;99.90
21184;DHT22;18176;49.502;11.754;2023-04-06T08:40:20;7.90;99.90
21184;DHT22;18176;49.502;11.754;2023-04-06T08:44:24;8.40;99.90
21184;DHT22;18176;49.502;11.754;2023-04-06T08:48:27;8.60;99.90
21184;DHT22;18176;49.502;11.754;2023-04-06T08:52:32;9.00;99.90
21184;DHT22;18176;49.502;11.754;2023-04-06T08:56:38;9.00;99.90
21184;DHT22;18176;49.502;11.754;2023-04-06T09:00:43;9.20;99.90
21184;DHT22;18176;49.502;11.754;2023-04-06T09:04:46;9.40;99.90
21184;DHT22;18176;49.502;11.754;2023-04-06T09:08:48;9.80;99.30
21184;DHT22;18176;49.502;11.754;2023-04-06T09:12:49;10.10;97.80
21184;DHT22;18176;49.502;11.754;2023-04-06T09:16:54;10.50;96.60
21184;DHT22;18176;49.502;11.754;2023-04-06T09:21:04;10.70;95.90
21184;DHT22;18176;49.502;11.754;2023-04-06T09:25:08;11.00;92.60
21184;DHT22;18176;49.502;11.754;2023-04-06T09:29:24;11.20;90.80
21184;DHT22;18176;49.502;11.754;2023-04-06T09:33:28;11.30;89.70
21184;DHT22;18176;49.502;11.754;2023-04-06T09:37:29;12.40;89.60
21184;DHT22;18176;49.502;11.754;2023-04-06T09:41:30;12.40;81.30
21184;DHT22;18176;49.502;11.754;2023-04-06T09:45:36;12.40;78.20
21184;DHT22;18176;49.502;11.754;2023-04-06T09:49:40;11.90;74.40
21184;DHT22;18176;49.502;11.754;2023-04-06T09:53:47;10.40;81.50
21184;DHT22;18176;49.502;11.754;2023-04-06T09:58:01;11.60;81.50
21184;DHT22;18176;49.502;11.754;2023-04-06T10:02:05;13.00;76.20
21184;DHT22;18176;49.502;11.754;2023-04-06T10:06:21;13.10;72.70
21184;DHT22;18176;49.502;11.754;2023-04-06T10:10:24;12.00;72.60
21184;DHT22;18176;49.502;11.754;2023-04-06T10:14:27;11.30;75.20
21184;DHT22;18176;49.502;11.754;2023-04-06T10:18:28;11.60;76.70
21184;DHT22;18176;49.502;11.754;2023-04-06T10:22:43;12.60;74.00
21184;DHT22;18176;49.502;11.754;2023-04-06T10:27:04;12.40;71.60
21184;DHT22;18176;49.502;11.754;2023-04-06T10:31:08;11.90;72.60
21184;DHT22;18176;49.502;11.754;2023-04-06T10:35:11;13.60;73.70
21184;DHT22;18176;49.502;11.754;2023-04-06T10:39:24;15.80;68.50
21184;DHT22;18176;49.502;11.754;2023-04-06T10:43:33;17.10;59.20
21184;DHT22;18176;49.502;11.754;2023-04-06T10:47:39;17.20;56.80
21184;DHT22;18176;49.502;11.754;2023-04-06T10:51:40;17.20;55.00
21184;DHT22;18176;49.502;11.754;2023-04-06T10:55:49;17.50;55.00
21184;DHT22;18176;49.502;11.754;2023-04-06T10:59:53;18.40;50.40
21184;DHT22;18176;49.502;11.754;2023-04-06T11:03:56;17.50;49.70
21184;DHT22;18176;49.502;11.754;2023-04-06T11:08:00;16.70;49.80
21184;DHT22;18176;49.502;11.754;2023-04-06T11:12:06;18.00;50.00
21184;DHT22;18176;49.502;11.754;2023-04-06T11:16:13;18.40;47.60
21184;DHT22;18176;49.502;11.754;2023-04-06T11:20:14;18.70;47.40
21184;DHT22;18176;49.502;11.754;2023-04-06T11:24:18;19.20;45.20
21184;DHT22;18176;49.502;11.754;2023-04-06T11:28:25;18.50;47.30
21184;DHT22;18176;49.502;11.754;2023-04-06T11:32:26;17.70;47.70
21184;DHT22;18176;49.502;11.754;2023-04-06T11:36:27;18.00;45.80
21184;DHT22;18176;49.502;11.754;2023-04-06T11:40:28;17.60;47.10
21184;DHT22;18176;49.502;11.754;2023-04-06T11:44:35;17.40;46.30
21184;DHT22;18176;49.502;11.754;2023-04-06T11:48:44;18.20;47.50
21184;DHT22;18176;49.502;11.754;2023-04-06T11:52:45;19.50;44.70
21184;DHT22;18176;49.502;11.754;2023-04-06T11:57:01;20.40;43.90
21184;DHT22;18176;49.502;11.754;2023-04-06T12:01:07;19.40;42.90
21184;DHT22;18176;49.502;11.754;2023-04-06T12:05:09;17.70;44.10
21184;DHT22;18176;49.502;11.754;2023-04-06T12:09:10;16.50;45.40
21184;DHT22;18176;49.502;11.754;2023-04-06T12:13:11;14.70;48.10
21184;DHT22;18176;49.502;11.754;2023-04-06T12:17:14;13.80;50.30
21184;DHT22;18176;49.502;11.754;2023-04-06T12:21:15;13.70;49.90
21184;DHT22;18176;49.502;11.754;2023-04-06T12:25:19;13.20;50.80
21184;DHT22;18176;49.502;11.754;2023-04-06T12:29:20;13.40;51.20
21184;DHT22;18176;49.502;11.754;2023-04-06T12:33:27;15.30;50.20
21184;DHT22;18176;49.502;11.754;2023-04-06T12:37:27;18.10;47.70
21184;DHT22;18176;49.502;11.754;2023-04-06T12:41:28;20.30;45.60
21184;DHT22;18176;49.502;11.754;2023-04-06T12:45:32;21.30;41.00
21184;DHT22;18176;49.502;11.754;2023-04-06T12:49:39;21.90;39.30
21184;DHT22;18176;49.502;11.754;2023-04-06T12:53:41;22.10;38.60
21184;DHT22;18176;49.502;11.754;2023-04-06T12:57:42;20.80;40.00
21184;DHT22;18176;49.502;11.754;2023-04-06T13:01:48;20.00;38.90
21184;DHT22;18176;49.502;11.754;2023-04-06T13:05:52;20.20;40.60
21184;DHT22;18176;49.502;11.754;2023-04-06T13:09:53;20.70;40.00
21184;DHT22;18176;49.502;11.754;2023-04-06T13:13:55;22.00;39.20
21184;DHT22;18176;49.502;11.754;2023-04-06T13:17:57;23.30;38.00
21184;DHT22;18176;49.502;11.754;2023-04-06T13:22:01;22.40;34.80
21184;DHT22;18176;49.502;11.754;2023-04-06T13:26:03;20.20;37.30
21184;DHT22;18176;49.502;11.754;2023-04-06T13:30:09;18.40;39.30
21184;DHT22;18176;49.502;11.754;2023-04-06T13:34:13;17.60;41.00
21184;DHT22;18176;49.502;11.754;2023-04-06T13:38:16;18.70;40.60
21184;DHT22;18176;49.502;11.754;2023-04-06T13:42:17;17.80;40.30
21184;DHT22;18176;49.502;11.754;2023-04-06T13:46:18;18.10;40.70
21184;DHT22;18176;49.502;11.754;2023-04-06T13:50:21;19.00;40.20
21184;DHT22;18176;49.502;11.754;2023-04-06T13:54:26;18.20;40.10
21184;DHT22;18176;49.502;11.754;2023-04-06T13:58:30;18.10;40.80
21184;DHT22;18176;49.502;11.754;2023-04-06T14:02:33;18.80;41.20
21184;DHT22;18176;49.502;11.754;2023-04-06T14:06:34;19.30;39.10
21184;DHT22;18176;49.502;11.754;2023-04-06T14:10:40;19.20;39.80
21184;DHT22;18176;49.502;11.754;2023-04-06T14:14:41;18.30;38.20
21184;DHT22;18176;49.502;11.754;2023-04-06T14:18:44;19.20;38.90
21184;DHT22;18176;49.502;11.754;2023-04-06T14:22:47;20.40;38.30
21184;DHT22;18176;49.502;11.754;2023-04-06T14:26:52;19.80;37.20
21184;DHT22;18176;49.502;11.754;2023-04-06T14:30:53;18.20;39.50
21184;DHT22;18176;49.502;11.754;2023-04-06T14:34:57;17.70;41.10
21184;DHT22;18176;49.502;11.754;2023-04-06T14:38:59;18.10;40.60
21184;DHT22;18176;49.502;11.754;2023-04-06T14:43:03;18.80;39.20
21184;DHT22;18176;49.502;11.754;2023-04-06T14:47:04;19.10;38.50
21184;DHT22;18176;49.502;11.754;2023-04-06T14:51:05;18.90;39.20
21184;DHT22;18176;49.502;11.754;2023-04-06T14:55:06;19.60;39.30
21184;DHT22;18176;49.502;11.754;2023-04-06T14:59:09;21.00;37.00
21184;DHT22;18176;49.502;11.754;2023-04-06T15:03:13;21.00;37.70
21184;DHT22;18176;49.502;11.754;2023-04-06T15:07:18;20.50;36.80
21184;DHT22;18176;49.502;11.754;2023-04-06T15:11:18;20.20;37.90
21184;DHT22;18176;49.502;11.754;2023-04-06T15:15:21;20.10;37.50
21184;DHT22;18176;49.502;11.754;2023-04-06T15:19:24;19.40;37.40
21184;DHT22;18176;49.502;11.754;2023-04-06T15:23:25;18.50;38.50
21184;DHT22;18176;49.502;11.754;2023-04-06T15:27:27;18.60;40.00
21184;DHT22;18176;49.502;11.754;2023-04-06T15:31:31;18.80;37.50
21184;DHT22;18176;49.502;11.754;2023-04-06T15:35:35;17.80;38.50
21184;DHT22;18176;49.502;11.754;2023-04-06T15:39:39;17.50;39.40
21184;DHT22;18176;49.502;11.754;2023-04-06T15:43:42;16.10;40.20
21184;DHT22;18176;49.502;11.754;2023-04-06T15:47:50;15.40;42.90
21184;DHT22;18176;49.502;11.754;2023-04-06T15:51:51;16.00;42.70
21184;DHT22;18176;49.502;11.754;2023-04-06T15:55:51;15.60;41.90
21184;DHT22;18176;49.502;11.754;2023-04-06T15:59:58;15.90;43.10
21184;DHT22;18176;49.502;11.754;2023-04-06T16:04:08;17.10;41.50
21184;DHT22;18176;49.502;11.754;2023-04-06T16:08:11;17.10;40.40
21184;DHT22;18176;49.502;11.754;2023-04-06T16:12:12;16.90;41.20
21184;DHT22;18176;49.502;11.754;2023-04-06T16:16:12;17.10;41.30
21184;DHT22;18176;49.502;11.754;2023-04-06T16:20:20;17.40;41.60
21184;DHT22;18176;49.502;11.754;2023-04-06T16:24:21;17.40;41.40
21184;DHT22;18176;49.502;11.754;2023-04-06T16:28:21;17.60;40.80
21184;DHT22;18176;49.502;11.754;2023-04-06T16:32:23;17.50;41.40
21184;DHT22;18176;49.502;11.754;2023-04-06T16:36:29;16.80;42.00
21184;DHT22;18176;49.502;11.754;2023-04-06T16:40:30;15.50;42.80
21184;DHT22;18176;49.502;11.754;2023-04-06T16:44:31;14.40;45.20
21184;DHT22;18176;49.502;11.754;2023-04-06T16:53:03;13.50;46.80
21184;DHT22;18176;49.502;11.754;2023-04-06T16:57:04;13.20;48.20
21184;DHT22;18176;49.502;11.754;2023-04-06T17:01:04;13.20;48.40
21184;DHT22;18176;49.502;11.754;2023-04-06T17:05:05;13.00;48.90
21184;DHT22;18176;49.502;11.754;2023-04-06T17:09:08;12.90;48.80
21184;DHT22;18176;49.502;11.754;2023-04-06T17:13:09;12.80;49.10
21184;DHT22;18176;49.502;11.754;2023-04-06T17:17:09;12.60;49.10
21184;DHT22;18176;49.502;11.754;2023-04-06T17:21:10;12.30;49.40
21184;DHT22;18176;49.502;11.754;2023-04-06T17:25:13;11.80;49.90
21184;DHT22;18176;49.502;11.754;2023-04-06T17:29:13;11.50;51.20
21184;DHT22;18176;49.502;11.754;2023-04-06T17:33:14;11.10;52.20
21184;DHT22;18176;49.502;11.754;2023-04-06T17:37:15;10.80;52.90
21184;DHT22;18176;49.502;11.754;2023-04-06T17:41:18;10.50;54.20
21184;DHT22;18176;49.502;11.754;2023-04-06T17:45:18;10.20;56.10
21184;DHT22;18176;49.502;11.754;2023-04-06T17:49:19;9.90;57.80
21184;DHT22;18176;49.502;11.754;2023-04-06T17:53:19;9.60;59.40
21184;DHT22;18176;49.502;11.754;2023-04-06T17:57:22;9.30;61.40
21184;DHT22;18176;49.502;11.754;2023-04-06T18:01:23;9.00;63.60
21184;DHT22;18176;49.502;11.754;2023-04-06T18:05:24;8.70;65.80
21184;DHT22;18176;49.502;11.754;2023-04-06T18:09:25;8.50;67.70
21184;DHT22;18176;49.502;11.754;2023-04-06T18:13:27;8.30;69.10
21184;DHT22;18176;49.502;11.754;2023-04-06T18:17:28;8.00;70.30
21184;DHT22;18176;49.502;11.754;2023-04-06T18:21:29;7.80;71.50
21184;DHT22;18176;49.502;11.754;2023-04-06T18:25:30;7.60;75.60
21184;DHT22;18176;49.502;11.754;2023-04-06T18:29:33;7.40;78.00
21184;DHT22;18176;49.502;11.754;2023-04-06T18:33:33;7.20;80.80
21184;DHT22;18176;49.502;11.754;2023-04-06T18:37:34;7.00;83.10
21184;DHT22;18176;49.502;11.754;2023-04-06T18:41:34;6.80;86.30
21184;DHT22;18176;49.502;11.754;2023-04-06T18:45:37;6.60;89.30
21184;DHT22;18176;49.502;11.754;2023-04-06T18:49:39;6.40;91.10
21184;DHT22;18176;49.502;11.754;2023-04-06T18:53:39;6.30;92.00
21184;DHT22;18176;49.502;11.754;2023-04-06T18:57:40;6.20;94.60
21184;DHT22;18176;49.502;11.754;2023-04-06T19:01:43;6.10;96.40
21184;DHT22;18176;49.502;11.754;2023-04-06T19:05:47;5.90;98.30
21184;DHT22;18176;49.502;11.754;2023-04-06T19:09:49;5.60;99.90
21184;DHT22;18176;49.502;11.754;2023-04-06T19:13:49;5.60;99.90
21184;DHT22;18176;49.502;11.754;2023-04-06T19:17:53;5.50;99.90
21184;DHT22;18176;49.502;11.754;2023-04-06T19:21:54;5.30;99.90
21184;DHT22;18176;49.502;11.754;2023-04-06T19:25:56;5.10;99.90
21184;DHT22;18176;49.502;11.754;2023-04-06T19:29:56;5.00;99.90
21184;DHT22;18176;49.502;11.754;2023-04-06T19:34:00;4.80;99.90
21184;DHT22;18176;49.502;11.754;2023-04-06T19:38:00;4.70;99.90
21184;DHT22;18176;49.502;11.754;2023-04-06T19:42:01;4.60;99.90
21184;DHT22;18176;49.502;11.754;2023-04-06T19:46:02;4.50;99.90
21184;DHT22;18176;49.502;11.754;2023-04-06T19:50:08;4.30;99.90
21184;DHT22;18176;49.502;11.754;2023-04-06T19:54:08;4.20;99.90
21184;DHT22;18176;49.502;11.754;2023-04-06T19:58:09;4.10;99.90
21184;DHT22;18176;49.502;11.754;2023-04-06T20:02:10;4.00;99.90
21184;DHT22;18176;49.502;11.754;2023-04-06T20:06:14;4.00;99.90
21184;DHT22;18176;49.502;11.754;2023-04-06T20:10:15;3.90;99.90
21184;DHT22;18176;49.502;11.754;2023-04-06T20:14:16;3.80;99.90
21184;DHT22;18176;49.502;11.754;2023-04-06T20:18:19;3.80;99.90
21184;DHT22;18176;49.502;11.754;2023-04-06T20:22:22;3.70;99.90
21184;DHT22;18176;49.502;11.754;2023-04-06T20:26:22;3.50;99.90
21184;DHT22;18176;49.502;11.754;2023-04-06T20:30:23;3.40;99.90
21184;DHT22;18176;49.502;11.754;2023-04-06T20:34:23;3.30;99.90
21184;DHT22;18176;49.502;11.754;2023-04-06T20:38:38;3.20;99.90
21184;DHT22;18176;49.502;11.754;2023-04-06T20:42:38;3.10;99.90
21184;DHT22;18176;49.502;11.754;2023-04-06T20:46:39;3.00;99.90
21184;DHT22;18176;49.502;11.754;2023-04-06T20:50:41;2.90;99.90
21184;DHT22;18176;49.502;11.754;2023-04-06T20:54:45;2.80;99.90
21184;DHT22;18176;49.502;11.754;2023-04-06T20:58:47;2.70;99.90
21184;DHT22;18176;49.502;11.754;2023-04-06T21:02:47;2.60;99.90
21184;DHT22;18176;49.502;11.754;2023-04-06T21:06:48;2.50;99.90
21184;DHT22;18176;49.502;11.754;2023-04-06T21:10:52;2.50;99.90
21184;DHT22;18176;49.502;11.754;2023-04-06T21:14:52;2.40;99.90
21184;DHT22;18176;49.502;11.754;2023-04-06T21:18:55;2.30;99.90
21184;DHT22;18176;49.502;11.754;2023-04-06T21:22:55;2.20;99.90
21184;DHT22;18176;49.502;11.754;2023-04-06T21:26:58;2.00;99.90
21184;DHT22;18176;49.502;11.754;2023-04-06T21:30:59;1.90;99.90
21184;DHT22;18176;49.502;11.754;2023-04-06T21:35:00;1.90;99.90
21184;DHT22;18176;49.502;11.754;2023-04-06T21:39:01;1.90;99.90
21184;DHT22;18176;49.502;11.754;2023-04-06T21:43:04;1.80;99.90
21184;DHT22;18176;49.502;11.754;2023-04-06T21:47:05;1.80;99.90
21184;DHT22;18176;49.502;11.754;2023-04-06T21:51:05;1.70;99.90
21184;DHT22;18176;49.502;11.754;2023-04-06T21:55:07;1.60;99.90
21184;DHT22;18176;49.502;11.754;2023-04-06T21:59:10;1.50;99.90
21184;DHT22;18176;49.502;11.754;2023-04-06T22:03:12;1.40;99.90
21184;DHT22;18176;49.502;11.754;2023-04-06T22:07:12;1.30;99.90
21184;DHT22;18176;49.502;11.754;2023-04-06T22:11:13;1.20;99.90
21184;DHT22;18176;49.502;11.754;2023-04-06T22:15:16;1.10;99.90
21184;DHT22;18176;49.502;11.754;2023-04-06T22:19:17;1.10;99.90
21184;DHT22;18176;49.502;11.754;2023-04-06T22:23:18;1.00;99.90
21184;DHT22;18176;49.502;11.754;2023-04-06T22:27:18;1.00;99.90
21184;DHT22;18176;49.502;11.754;2023-04-06T22:31:21;1.00;99.90
21184;DHT22;18176;49.502;11.754;2023-04-06T22:35:22;0.90;99.90
21184;DHT22;18176;49.502;11.754;2023-04-06T22:39:22;0.80;99.90
21184;DHT22;18176;49.502;11.754;2023-04-06T22:43:22;0.70;99.90
21184;DHT22;18176;49.502;11.754;2023-04-06T22:47:25;0.70;99.90
21184;DHT22;18176;49.502;11.754;2023-04-06T22:51:25;0.70;99.90
21184;DHT22;18176;49.502;11.754;2023-04-06T22:55:27;0.70;99.90
21184;DHT22;18176;49.502;11.754;2023-04-06T22:59:28;0.60;99.90
21184;DHT22;18176;49.502;11.754;2023-04-06T23:03:30;0.50;99.90
21184;DHT22;18176;49.502;11.754;2023-04-06T23:07:31;0.40;99.90
21184;DHT22;18176;49.502;11.754;2023-04-06T23:11:31;0.40;99.90
21184;DHT22;18176;49.502;11.754;2023-04-06T23:15:31;0.30;99.90
21184;DHT22;18176;49.502;11.754;2023-04-06T23:19:35;0.30;99.90
21184;DHT22;18176;49.502;11.754;2023-04-06T23:23:35;0.20;99.90
21184;DHT22;18176;49.502;11.754;2023-04-06T23:27:35;0.20;99.90
21184;DHT22;18176;49.502;11.754;2023-04-06T23:31:35;0.10;99.90
21184;DHT22;18176;49.502;11.754;2023-04-06T23:35:38;0.10;99.90
21184;DHT22;18176;49.502;11.754;2023-04-06T23:39:39;0.00;99.90
21184;DHT22;18176;49.502;11.754;2023-04-06T23:43:40;-0.10;99.90
21184;DHT22;18176;49.502;11.754;2023-04-06T23:47:41;-0.10;99.90
21184;DHT22;18176;49.502;11.754;2023-04-06T23:51:44;-0.10;99.90
21184;DHT22;18176;49.502;11.754;2023-04-06T23:55:44;-0.20;99.90
21184;DHT22;18176;49.502;11.754;2023-04-06T23:59:45;-0.20;99.90
